createdAt,value
2019-03-01T00:01:26.899Z,98870.64
2019-03-01T00:04:11.752Z,98872.04
2019-03-01T00:06:56.526Z,98863.81
2019-03-01T00:09:50.699Z,98874.24
2019-03-01T00:12:29.518Z,98876.30
2019-03-01T00:15:25.038Z,98876.41
2019-03-01T00:18:25.269Z,98880.38
2019-03-01T00:21:20.779Z,98884.92
2019-03-01T00:24:11.589Z,98877.73
2019-03-01T00:26:53.377Z,98872.23
2019-03-01T00:29:50.226Z,98879.70
2019-03-01T00:32:47.183Z,98881.03
2019-03-01T00:35:42.031Z,98880.27
2019-03-01T00:38:21.012Z,98876.13
2019-03-01T00:41:21.122Z,98874.44
2019-03-01T00:44:18.082Z,98873.68
2019-03-01T00:46:53.934Z,98872.91
2019-03-01T00:49:31.319Z,98878.59
2019-03-01T00:52:08.002Z,98870.46
2019-03-01T00:54:43.783Z,98869.98
2019-03-01T00:57:19.595Z,98872.74
2019-03-01T00:59:55.450Z,98871.58
2019-03-01T01:02:31.516Z,98874.41
2019-03-01T01:05:07.558Z,98870.73
2019-03-01T01:07:43.311Z,98872.53
2019-03-01T01:10:19.174Z,98869.88
2019-03-01T01:12:55.028Z,98862.34
2019-03-01T01:15:30.876Z,98857.33
2019-03-01T01:18:40.540Z,98863.19
2019-03-01T01:21:37.983Z,98860.89
2019-03-01T01:24:13.834Z,98862.12
2019-03-01T01:26:49.694Z,98861.00
2019-03-01T01:29:25.583Z,98863.44
2019-03-01T01:32:01.448Z,98868.17
2019-03-01T01:34:37.563Z,98867.22
2019-03-01T01:37:13.830Z,98867.31
2019-03-01T01:39:49.684Z,98859.73
2019-03-01T01:42:25.531Z,98854.91
2019-03-01T01:45:01.380Z,98856.71
2019-03-01T01:47:37.244Z,98858.30
2019-03-01T01:50:13.308Z,98858.14
2019-03-01T01:52:49.153Z,98855.66
2019-03-01T01:55:25.005Z,98858.02
2019-03-01T01:58:00.863Z,98865.51
2019-03-01T02:00:36.719Z,98860.66
2019-03-01T02:03:13.486Z,98860.66
2019-03-01T02:05:49.353Z,98854.06
2019-03-01T02:08:25.197Z,98859.36
2019-03-01T02:11:01.057Z,98857.55
2019-03-01T02:13:38.077Z,98853.51
2019-03-01T02:16:13.987Z,98844.77
2019-03-01T02:18:57.435Z,98845.19
2019-03-01T02:21:27.443Z,98838.16
2019-03-01T02:24:03.302Z,98838.16
2019-03-01T02:26:39.150Z,98845.44
2019-03-01T02:29:15.009Z,98839.48
2019-03-01T02:31:52.978Z,98830.50
2019-03-01T02:34:28.866Z,98829.44
2019-03-01T02:37:06.453Z,98832.36
2019-03-01T02:39:42.304Z,98824.32
2019-03-01T02:42:18.152Z,98830.45
2019-03-01T02:44:54.025Z,98839.31
2019-03-01T02:47:29.864Z,98830.91
2019-03-01T02:50:08.203Z,98831.38
2019-03-01T02:52:44.044Z,98823.23
2019-03-01T02:55:23.112Z,98825.41
2019-03-01T02:57:59.026Z,98820.56
2019-03-01T03:00:35.081Z,98819.91
2019-03-01T03:03:10.930Z,98825.67
2019-03-01T03:06:03.586Z,98832.75
2019-03-01T03:08:39.553Z,98833.78
2019-03-01T03:11:15.394Z,98832.83
2019-03-01T03:13:51.249Z,98831.21
2019-03-01T03:16:26.988Z,98835.44
2019-03-01T03:19:02.854Z,98840.36
2019-03-01T03:21:38.712Z,98828.80
2019-03-01T03:24:14.558Z,98838.23
2019-03-01T03:26:50.425Z,98838.70
2019-03-01T03:29:26.274Z,98836.43
2019-03-01T03:32:02.117Z,98829.64
2019-03-01T03:34:37.983Z,98829.70
2019-03-01T03:37:13.836Z,98830.19
2019-03-01T03:39:49.696Z,98834.41
2019-03-01T03:42:25.545Z,98839.39
2019-03-01T03:45:01.694Z,98837.23
2019-03-01T03:47:38.682Z,98842.22
2019-03-01T03:50:15.456Z,98834.98
2019-03-01T03:52:51.315Z,98836.60
2019-03-01T03:55:27.476Z,98835.02
2019-03-01T03:58:03.422Z,98833.73
2019-03-01T04:00:39.284Z,98841.30
2019-03-01T04:03:15.181Z,98838.00
2019-03-01T04:05:50.949Z,98841.19
2019-03-01T04:08:26.846Z,98834.54
2019-03-01T04:11:02.707Z,98839.20
2019-03-01T04:13:38.542Z,98829.95
2019-03-01T04:16:14.319Z,98833.81
2019-03-01T04:18:50.159Z,98834.28
2019-03-01T04:21:26.006Z,98829.18
2019-03-01T04:24:01.878Z,98829.18
2019-03-01T04:26:37.715Z,98829.00
2019-03-01T04:29:13.577Z,98830.33
2019-03-01T04:31:50.149Z,98824.70
2019-03-01T04:34:25.993Z,98828.86
2019-03-01T04:37:01.766Z,98833.12
2019-03-01T04:39:37.598Z,98827.36
2019-03-01T04:42:13.462Z,98830.03
2019-03-01T04:44:49.299Z,98825.63
2019-03-01T04:47:25.051Z,98819.28
2019-03-01T04:50:00.908Z,98814.77
2019-03-01T04:52:36.976Z,98815.47
2019-03-01T04:55:18.665Z,98821.74
2019-03-01T04:57:54.417Z,98814.41
2019-03-01T05:00:30.214Z,98816.53
2019-03-01T05:03:06.014Z,98819.25
2019-03-01T05:05:41.883Z,98812.31
2019-03-01T05:08:18.241Z,98808.34
2019-03-01T05:10:54.097Z,98807.39
2019-03-01T05:13:29.976Z,98803.98
2019-03-01T05:16:06.005Z,98803.14
2019-03-01T05:18:41.857Z,98807.58
2019-03-01T05:21:17.713Z,98808.94
2019-03-01T05:23:53.570Z,98808.57
2019-03-01T05:26:29.411Z,98800.72
2019-03-01T05:29:05.279Z,98794.95
2019-03-01T05:31:41.131Z,98799.69
2019-03-01T05:34:16.995Z,98799.03
2019-03-01T05:36:53.953Z,98804.75
2019-03-01T05:39:29.713Z,98803.72
2019-03-01T05:42:05.565Z,98802.98
2019-03-01T05:44:41.422Z,98816.62
2019-03-01T05:47:17.486Z,98808.36
2019-03-01T05:49:53.341Z,98815.39
2019-03-01T05:52:30.376Z,98818.45
2019-03-01T05:55:08.447Z,98819.22
2019-03-01T05:58:21.556Z,98821.27
2019-03-01T06:01:03.137Z,98819.17
2019-03-01T06:03:44.978Z,98815.47
2019-03-01T06:06:41.916Z,98812.22
2019-03-01T06:09:32.379Z,98816.55
2019-03-01T06:12:36.751Z,98821.96
2019-03-01T06:15:33.326Z,98811.56
2019-03-01T06:18:29.920Z,98816.31
2019-03-01T06:21:08.805Z,98823.44
2019-03-01T06:23:56.550Z,98817.20
2019-03-01T06:26:50.564Z,98829.39
2019-03-01T06:29:29.329Z,98829.79
2019-03-01T06:32:24.702Z,98843.48
2019-03-01T06:35:18.446Z,98838.08
2019-03-01T06:38:16.152Z,98843.41
2019-03-01T06:40:56.589Z,98833.81
2019-03-01T06:43:38.139Z,98835.76
2019-03-01T06:46:22.944Z,98839.02
2019-03-01T06:49:02.987Z,98840.42
2019-03-01T06:51:38.776Z,98842.03
2019-03-01T06:54:14.520Z,98838.89
2019-03-01T06:56:50.277Z,98835.66
2019-03-01T06:59:26.065Z,98830.84
2019-03-01T07:02:02.935Z,98827.14
2019-03-01T07:04:38.729Z,98824.87
2019-03-01T07:07:14.662Z,98826.41
2019-03-01T07:09:50.430Z,98828.27
2019-03-01T07:12:26.163Z,98834.17
2019-03-01T07:15:01.971Z,98832.50
2019-03-01T07:17:39.545Z,98826.33
2019-03-01T07:20:15.344Z,98827.59
2019-03-01T07:22:51.149Z,98822.02
2019-03-01T07:25:26.921Z,98828.31
2019-03-01T07:28:02.772Z,98830.23
2019-03-01T07:30:38.574Z,98831.20
2019-03-01T07:33:14.385Z,98830.34
2019-03-01T07:35:50.258Z,98827.05
2019-03-01T07:38:25.985Z,98825.11
2019-03-01T07:41:01.783Z,98819.72
2019-03-01T07:43:37.582Z,98813.38
2019-03-01T07:46:13.417Z,98808.79
2019-03-01T07:48:49.177Z,98812.76
2019-03-01T07:51:26.944Z,98813.45
2019-03-01T07:54:02.465Z,98818.16
2019-03-01T07:56:39.886Z,98815.29
2019-03-01T07:59:15.714Z,98821.41
2019-03-01T08:01:51.483Z,98827.18
2019-03-01T08:04:28.805Z,98821.38
2019-03-01T08:07:05.343Z,98818.22
2019-03-01T08:09:44.505Z,98811.08
2019-03-01T08:12:18.786Z,98815.56
2019-03-01T08:14:54.631Z,98812.56
2019-03-01T08:17:31.604Z,98813.41
2019-03-01T08:20:13.212Z,98813.14
2019-03-01T08:22:49.765Z,98813.82
2019-03-01T08:25:25.619Z,98816.89
2019-03-01T08:28:01.428Z,98824.16
2019-03-01T08:30:37.311Z,98824.39
2019-03-01T08:33:13.166Z,98826.33
2019-03-01T08:35:48.957Z,98823.02
2019-03-01T08:38:25.432Z,98819.08
2019-03-01T08:41:02.153Z,98821.41
2019-03-01T08:43:37.892Z,98829.66
2019-03-01T08:46:13.660Z,98825.58
2019-03-01T08:48:49.454Z,98824.63
2019-03-01T08:51:26.447Z,98825.06
2019-03-01T08:54:02.680Z,98818.66
2019-03-01T08:56:38.485Z,98822.94
2019-03-01T08:59:17.591Z,98821.07
2019-03-01T09:01:51.700Z,98816.88
2019-03-01T09:04:27.470Z,98824.25
2019-03-01T09:07:03.292Z,98822.59
2019-03-01T09:09:39.246Z,98824.27
2019-03-01T09:12:15.010Z,98821.42
2019-03-01T09:14:50.782Z,98822.95
2019-03-01T09:17:26.551Z,98825.10
2019-03-01T09:20:02.474Z,98825.10
2019-03-01T09:22:38.302Z,98828.41
2019-03-01T09:25:15.703Z,98832.11
2019-03-01T09:27:51.560Z,98825.78
2019-03-01T09:30:27.411Z,98822.47
2019-03-01T09:33:03.359Z,98820.96
2019-03-01T09:35:43.993Z,98813.41
2019-03-01T09:38:19.819Z,98815.57
2019-03-01T09:40:57.416Z,98809.05
2019-03-01T09:43:33.019Z,98809.81
2019-03-01T09:46:08.784Z,98806.70
2019-03-01T09:48:45.675Z,98803.89
2019-03-01T09:51:22.399Z,98802.17
2019-03-01T09:53:58.172Z,98795.27
2019-03-01T09:56:33.940Z,98787.53
2019-03-01T09:59:09.738Z,98788.94
2019-03-01T10:01:46.478Z,98781.77
2019-03-01T10:04:22.277Z,98782.25
2019-03-01T10:06:58.044Z,98784.42
2019-03-01T10:09:34.217Z,98787.44
2019-03-01T10:12:09.977Z,98781.59
2019-03-01T10:14:45.837Z,98784.52
2019-03-01T10:17:57.126Z,98784.43
2019-03-01T10:20:36.358Z,98791.41
2019-03-01T10:23:12.205Z,98788.28
2019-03-01T10:25:48.065Z,98791.61
2019-03-01T10:28:24.210Z,98791.61
2019-03-01T10:31:00.236Z,98784.91
2019-03-01T10:33:36.139Z,98792.17
2019-03-01T10:36:12.002Z,98783.88
2019-03-01T10:38:47.952Z,98789.53
2019-03-01T10:41:23.803Z,98783.88
2019-03-01T10:43:59.642Z,98782.91
2019-03-01T10:46:35.511Z,98783.88
2019-03-01T10:49:11.368Z,98781.03
2019-03-01T10:51:47.219Z,98782.71
2019-03-01T10:54:23.073Z,98777.33
2019-03-01T10:56:58.924Z,98778.65
2019-03-01T10:59:34.778Z,98786.70
2019-03-01T11:02:11.188Z,98782.63
2019-03-01T11:04:46.987Z,98781.22
2019-03-01T11:07:22.854Z,98785.19
2019-03-01T11:09:59.026Z,98786.13
2019-03-01T11:12:35.280Z,98781.58
2019-03-01T11:15:12.566Z,98778.56
2019-03-01T11:17:48.421Z,98781.20
2019-03-01T11:20:24.375Z,98773.63
2019-03-01T11:23:00.284Z,98770.83
2019-03-01T11:25:36.181Z,98771.19
2019-03-01T11:28:12.041Z,98767.22
2019-03-01T11:30:47.898Z,98770.71
2019-03-01T11:33:24.265Z,98764.58
2019-03-01T11:36:00.109Z,98770.16
2019-03-01T11:38:35.927Z,98771.84
2019-03-01T11:41:11.821Z,98758.16
2019-03-01T11:43:48.701Z,98762.49
2019-03-01T11:46:24.662Z,98755.23
2019-03-01T11:49:00.497Z,98750.31
2019-03-01T11:51:36.363Z,98746.42
2019-03-01T11:54:13.651Z,98753.98
2019-03-01T11:56:50.011Z,98759.64
2019-03-01T11:59:25.860Z,98750.20
2019-03-01T12:02:03.058Z,98748.78
2019-03-01T12:04:39.238Z,98751.11
2019-03-01T12:07:15.059Z,98753.00
2019-03-01T12:09:51.445Z,98749.78
2019-03-01T12:12:27.296Z,98756.67
2019-03-01T12:15:03.145Z,98749.17
2019-03-01T12:17:39.518Z,98754.17
2019-03-01T12:20:21.020Z,98756.25
2019-03-01T12:22:56.846Z,98753.08
2019-03-01T12:25:32.706Z,98749.69
2019-03-01T12:28:08.560Z,98746.77
2019-03-01T12:30:44.407Z,98754.12
2019-03-01T12:33:20.304Z,98746.85
2019-03-01T12:35:56.416Z,98751.66
2019-03-01T12:38:32.376Z,98758.27
2019-03-01T12:41:08.244Z,98752.81
2019-03-01T12:43:44.104Z,98750.34
2019-03-01T12:46:19.883Z,98756.95
2019-03-01T12:48:55.653Z,98753.08
2019-03-01T12:51:31.503Z,98756.97
2019-03-01T12:54:07.346Z,98763.57
2019-03-01T12:56:43.303Z,98755.51
2019-03-01T12:59:19.175Z,98759.50
2019-03-01T13:01:54.969Z,98761.09
2019-03-01T13:04:30.731Z,98760.80
2019-03-01T13:07:06.496Z,98761.09
2019-03-01T13:09:42.290Z,98752.33
2019-03-01T13:12:19.050Z,98747.79
2019-03-01T13:14:54.863Z,98750.34
2019-03-01T13:17:33.730Z,98749.69
2019-03-01T13:20:13.207Z,98754.12
2019-03-01T13:22:49.127Z,98753.34
2019-03-01T13:25:25.923Z,98743.97
2019-03-01T13:28:02.470Z,98742.41
2019-03-01T13:30:38.251Z,98741.64
2019-03-01T13:33:19.718Z,98746.26
2019-03-01T13:36:03.653Z,98744.30
2019-03-01T13:38:37.953Z,98740.02
2019-03-01T13:41:13.694Z,98732.77
2019-03-01T13:43:49.530Z,98732.86
2019-03-01T13:46:26.362Z,98735.81
2019-03-01T13:49:02.876Z,98749.40
2019-03-01T13:51:38.638Z,98743.44
2019-03-01T13:54:14.404Z,98734.55
2019-03-01T13:56:50.852Z,98735.87
2019-03-01T13:59:27.175Z,98736.70
2019-03-01T14:02:04.365Z,98731.09
2019-03-01T14:04:41.360Z,98729.88
2019-03-01T14:07:17.296Z,98732.31
2019-03-01T14:09:53.155Z,98736.02
2019-03-01T14:12:28.870Z,98734.45
2019-03-01T14:15:07.444Z,98737.04
2019-03-01T14:17:43.178Z,98729.04
2019-03-01T14:20:21.249Z,98736.41
2019-03-01T14:22:57.054Z,98738.55
2019-03-01T14:25:32.847Z,98738.78
2019-03-01T14:28:08.633Z,98736.66
2019-03-01T14:30:44.447Z,98737.88
2019-03-01T14:33:20.167Z,98737.69
2019-03-01T14:35:55.980Z,98730.79
2019-03-01T14:38:31.707Z,98739.63
2019-03-01T14:41:07.978Z,98739.74
2019-03-01T14:43:43.715Z,98745.39
2019-03-01T14:46:20.839Z,98737.21
2019-03-01T14:48:57.127Z,98745.39
2019-03-01T14:51:32.992Z,98745.02
2019-03-01T14:54:09.886Z,98746.20
2019-03-01T14:56:47.254Z,98747.03
2019-03-01T14:59:26.192Z,98746.62
2019-03-01T15:02:20.179Z,98757.59
2019-03-01T15:04:56.019Z,98760.49
2019-03-01T15:07:31.870Z,98774.72
2019-03-01T15:10:11.611Z,98760.13
2019-03-01T15:12:47.459Z,98765.70
2019-03-01T15:15:26.398Z,98767.56
2019-03-01T15:18:00.921Z,98779.45
2019-03-01T15:20:37.278Z,98778.17
2019-03-01T15:23:15.053Z,98772.71
2019-03-01T15:25:50.617Z,98779.39
2019-03-01T15:28:26.468Z,98777.89
2019-03-01T15:31:02.341Z,98782.43
2019-03-01T15:33:38.189Z,98788.27
2019-03-01T15:36:18.076Z,98798.59
2019-03-01T15:38:51.529Z,98807.65
2019-03-01T15:41:28.207Z,98802.39
2019-03-01T15:44:04.157Z,98813.25
2019-03-01T15:46:40.010Z,98805.63
2019-03-01T15:49:16.252Z,98804.30
2019-03-01T15:51:52.141Z,98804.95
2019-03-01T15:54:28.191Z,98803.23
2019-03-01T15:57:04.269Z,98804.73
2019-03-01T15:59:44.405Z,98810.19
2019-03-01T16:02:19.100Z,98807.74
2019-03-01T16:04:54.889Z,98816.08
2019-03-01T16:07:32.345Z,98817.88
2019-03-01T16:10:18.718Z,98826.52
2019-03-01T16:12:54.514Z,98830.05
2019-03-01T16:15:30.335Z,98830.10
2019-03-01T16:18:06.141Z,98831.62
2019-03-01T16:20:41.928Z,98836.83
2019-03-01T16:23:17.684Z,98845.12
2019-03-01T16:25:56.334Z,98846.25
2019-03-01T16:28:32.279Z,98845.23
2019-03-01T16:31:08.394Z,98858.30
2019-03-01T16:33:44.156Z,98862.73
2019-03-01T16:36:23.374Z,98864.92
2019-03-01T16:38:59.130Z,98870.13
2019-03-01T16:41:35.347Z,98873.37
2019-03-01T16:44:11.263Z,98874.77
2019-03-01T16:46:47.029Z,98876.39
2019-03-01T16:49:23.614Z,98876.09
2019-03-01T16:52:00.294Z,98879.30
2019-03-01T16:54:36.628Z,98888.05
2019-03-01T16:57:15.043Z,98898.30
2019-03-01T16:59:49.897Z,98897.92
2019-03-01T17:02:25.672Z,98902.97
2019-03-01T17:05:03.887Z,98897.28
2019-03-01T17:07:39.350Z,98894.17
2019-03-01T17:10:18.845Z,98901.55
2019-03-01T17:12:54.557Z,98905.81
2019-03-01T17:15:30.323Z,98911.02
2019-03-01T17:18:11.132Z,98919.95
2019-03-01T17:20:44.574Z,98922.59
2019-03-01T17:23:20.362Z,98934.07
2019-03-01T17:25:56.163Z,98937.88
2019-03-01T17:28:32.046Z,98938.80
2019-03-01T17:31:07.838Z,98948.97
2019-03-01T17:33:45.102Z,98949.03
2019-03-01T17:36:21.881Z,98953.47
2019-03-01T17:38:57.658Z,98955.79
2019-03-01T17:41:33.442Z,98953.09
2019-03-01T17:44:09.632Z,98963.33
2019-03-01T17:46:45.411Z,98964.55
2019-03-01T17:49:21.250Z,98956.16
2019-03-01T17:51:57.712Z,98949.98
2019-03-01T17:54:33.596Z,98966.05
2019-03-01T17:57:09.603Z,98964.86
2019-03-01T17:59:48.244Z,98966.41
2019-03-01T18:02:22.867Z,98979.69
2019-03-01T18:04:58.620Z,98982.00
2019-03-01T18:07:34.419Z,98983.32
2019-03-01T18:10:12.224Z,98984.80
2019-03-01T18:12:48.028Z,98978.59
2019-03-01T18:15:23.732Z,98987.87
2019-03-01T18:17:59.495Z,98988.50
2019-03-01T18:20:37.765Z,98985.94
2019-03-01T18:23:12.820Z,98989.20
2019-03-01T18:25:48.849Z,98988.19
2019-03-01T18:28:28.317Z,98992.77
2019-03-01T18:31:02.974Z,98998.83
2019-03-01T18:33:38.801Z,98998.80
2019-03-01T18:36:14.518Z,99009.03
2019-03-01T18:38:50.386Z,98999.33
2019-03-01T18:41:27.392Z,99001.75
2019-03-01T18:44:03.546Z,99005.45
2019-03-01T18:46:39.547Z,99016.67
2019-03-01T18:49:16.692Z,99020.41
2019-03-01T18:51:53.213Z,99036.92
2019-03-01T18:54:29.037Z,99037.17
2019-03-01T18:57:04.885Z,99041.08
2019-03-01T18:59:40.787Z,99042.19
2019-03-01T19:02:16.680Z,99048.46
2019-03-01T19:04:54.066Z,99048.73
2019-03-01T19:07:29.931Z,99051.09
2019-03-01T19:10:08.962Z,99057.69
2019-03-01T19:12:48.626Z,99059.39
2019-03-01T19:15:22.720Z,99058.01
2019-03-01T19:17:58.568Z,99059.54
2019-03-01T19:20:49.064Z,99057.12
2019-03-01T19:23:25.794Z,99054.31
2019-03-01T19:26:02.004Z,99058.48
2019-03-01T19:28:37.711Z,99061.44
2019-03-01T19:31:13.499Z,99064.90
2019-03-01T19:33:49.362Z,99060.53
2019-03-01T19:36:25.315Z,99056.41
2019-03-01T19:39:01.555Z,99067.81
2019-03-01T19:41:39.072Z,99086.45
2019-03-01T19:44:15.030Z,99094.03
2019-03-01T19:46:51.390Z,99106.23
2019-03-01T19:49:28.314Z,99116.13
2019-03-01T19:52:04.114Z,99125.13
2019-03-01T19:54:40.172Z,99123.38
2019-03-01T19:57:16.244Z,99133.11
2019-03-01T19:59:51.981Z,99124.03
2019-03-01T20:02:30.875Z,99129.81
2019-03-01T20:05:08.925Z,99139.13
2019-03-01T20:07:44.768Z,99143.83
2019-03-01T20:10:20.635Z,99143.62
2019-03-01T20:12:56.473Z,99152.94
2019-03-01T20:15:32.656Z,99157.83
2019-03-01T20:18:09.892Z,99156.23
2019-03-01T20:20:46.092Z,99165.92
2019-03-01T20:23:21.954Z,99174.66
2019-03-01T20:25:57.800Z,99180.63
2019-03-01T20:28:33.652Z,99183.38
2019-03-01T20:31:09.501Z,99189.39
2019-03-01T20:33:45.362Z,99188.52
2019-03-01T20:36:21.212Z,99195.77
2019-03-01T20:38:59.443Z,99203.92
2019-03-01T20:41:35.946Z,99203.45
2019-03-01T20:44:14.653Z,99205.19
2019-03-01T20:46:50.468Z,99210.52
2019-03-01T20:49:26.314Z,99215.31
2019-03-01T20:52:03.313Z,99217.52
2019-03-01T20:54:39.252Z,99214.13
2019-03-01T20:57:15.008Z,99220.72
2019-03-01T20:59:51.593Z,99222.09
2019-03-01T21:02:27.546Z,99228.59
2019-03-01T21:05:03.394Z,99232.34
2019-03-01T21:07:39.653Z,99221.61
2019-03-01T21:10:20.692Z,99232.39
2019-03-01T21:12:56.589Z,99222.17
2019-03-01T21:15:34.619Z,99222.97
2019-03-01T21:18:10.027Z,99230.58
2019-03-01T21:20:45.903Z,99229.53
2019-03-01T21:23:21.845Z,99228.80
2019-03-01T21:25:57.587Z,99231.62
2019-03-01T21:28:33.762Z,99233.28
2019-03-01T21:31:11.044Z,99244.06
2019-03-01T21:33:46.907Z,99246.52
2019-03-01T21:36:25.946Z,99239.77
2019-03-01T21:39:01.369Z,99244.11
2019-03-01T21:41:41.494Z,99242.99
2019-03-01T21:44:16.261Z,99253.90
2019-03-01T21:46:51.999Z,99253.90
2019-03-01T21:49:27.806Z,99253.73
2019-03-01T21:52:03.603Z,99255.43
2019-03-01T21:54:39.472Z,99259.38
2019-03-01T21:57:15.210Z,99260.65
2019-03-01T21:59:52.512Z,99258.41
2019-03-01T22:02:28.453Z,99262.69
2019-03-01T22:05:13.628Z,99264.47
2019-03-01T22:07:51.642Z,99281.73
2019-03-01T22:10:27.484Z,99274.77
2019-03-01T22:13:03.353Z,99278.88
2019-03-01T22:15:39.336Z,99278.08
2019-03-01T22:18:15.160Z,99274.98
2019-03-01T22:20:50.921Z,99275.61
2019-03-01T22:23:26.650Z,99278.78
2019-03-01T22:26:02.504Z,99285.27
2019-03-01T22:28:38.216Z,99289.41
2019-03-01T22:31:14.020Z,99289.22
2019-03-01T22:33:52.562Z,99291.66
2019-03-01T22:36:27.251Z,99289.42
2019-03-01T22:39:03.115Z,99294.77
2019-03-01T22:41:40.614Z,99290.08
2019-03-01T22:44:16.460Z,99295.84
2019-03-01T22:46:52.310Z,99292.05
2019-03-01T22:49:31.744Z,99297.73
2019-03-01T22:52:07.309Z,99298.89
2019-03-01T22:54:43.144Z,99306.59
2019-03-01T22:57:22.463Z,99312.50
2019-03-01T22:59:56.700Z,99308.24
2019-03-01T23:02:33.239Z,99317.09
2019-03-01T23:05:09.848Z,99320.03
2019-03-01T23:07:45.706Z,99314.10
2019-03-01T23:10:22.330Z,99314.61
2019-03-01T23:12:58.332Z,99321.38
2019-03-01T23:15:34.190Z,99318.95
2019-03-01T23:18:10.038Z,99319.27
2019-03-01T23:20:45.884Z,99327.80
2019-03-01T23:23:24.008Z,99323.50
2019-03-01T23:25:59.341Z,99328.14
2019-03-01T23:28:35.505Z,99330.43
2019-03-01T23:31:11.681Z,99331.04
2019-03-01T23:33:47.516Z,99327.46
2019-03-01T23:36:24.864Z,99326.44
2019-03-01T23:39:01.073Z,99324.06
2019-03-01T23:41:38.448Z,99331.13
2019-03-01T23:44:15.434Z,99331.13
2019-03-01T23:46:51.300Z,99342.94
2019-03-01T23:49:27.151Z,99335.73
2019-03-01T23:52:03.001Z,99333.63
2019-03-01T23:54:40.628Z,99338.88
2019-03-01T23:57:16.354Z,99341.29
2019-03-01T23:59:52.210Z,99345.33
